sensor_id;sensor_type;location;lat;lon;timestamp;P1;durP1;ratioP1;P2;durP2;ratioP2
60225;SDS011;46090;48.436;11.410;2022-08-19T00:01:34;13.52;;;9.55;;
60225;SDS011;46090;48.436;11.410;2022-08-19T00:04:05;14.25;;;9.13;;
60225;SDS011;46090;48.436;11.410;2022-08-19T00:06:35;13.57;;;8.70;;
60225;SDS011;46090;48.436;11.410;2022-08-19T00:09:05;16.98;;;9.45;;
60225;SDS011;46090;48.436;11.410;2022-08-19T00:11:33;12.75;;;8.32;;
60225;SDS011;46090;48.436;11.410;2022-08-19T00:14:01;11.55;;;7.38;;
60225;SDS011;46090;48.436;11.410;2022-08-19T00:16:29;14.35;;;8.82;;
60225;SDS011;46090;48.436;11.410;2022-08-19T00:18:58;13.85;;;8.25;;
60225;SDS011;46090;48.436;11.410;2022-08-19T00:21:26;13.05;;;8.13;;
60225;SDS011;46090;48.436;11.410;2022-08-19T00:23:54;12.60;;;8.90;;
60225;SDS011;46090;48.436;11.410;2022-08-19T00:26:25;11.90;;;7.75;;
60225;SDS011;46090;48.436;11.410;2022-08-19T00:28:53;13.30;;;8.50;;
60225;SDS011;46090;48.436;11.410;2022-08-19T00:31:22;11.95;;;7.60;;
60225;SDS011;46090;48.436;11.410;2022-08-19T00:33:53;10.55;;;7.18;;
60225;SDS011;46090;48.436;11.410;2022-08-19T00:36:24;11.80;;;6.20;;
60225;SDS011;46090;48.436;11.410;2022-08-19T00:38:53;9.82;;;5.82;;
60225;SDS011;46090;48.436;11.410;2022-08-19T00:41:20;11.02;;;6.72;;
60225;SDS011;46090;48.436;11.410;2022-08-19T00:44:08;10.15;;;6.28;;
60225;SDS011;46090;48.436;11.410;2022-08-19T00:46:39;10.10;;;5.35;;
60225;SDS011;46090;48.436;11.410;2022-08-19T00:49:54;15.02;;;6.07;;
60225;SDS011;46090;48.436;11.410;2022-08-19T00:51:59;8.80;;;5.10;;
60225;SDS011;46090;48.436;11.410;2022-08-19T00:54:28;9.48;;;5.30;;
60225;SDS011;46090;48.436;11.410;2022-08-19T00:56:58;8.77;;;4.60;;
60225;SDS011;46090;48.436;11.410;2022-08-19T00:59:26;8.40;;;4.68;;
60225;SDS011;46090;48.436;11.410;2022-08-19T01:02:14;8.57;;;4.30;;
60225;SDS011;46090;48.436;11.410;2022-08-19T01:04:45;8.95;;;4.65;;
60225;SDS011;46090;48.436;11.410;2022-08-19T01:07:13;8.82;;;5.55;;
60225;SDS011;46090;48.436;11.410;2022-08-19T01:09:45;8.60;;;4.32;;
60225;SDS011;46090;48.436;11.410;2022-08-19T01:12:12;8.57;;;4.50;;
60225;SDS011;46090;48.436;11.410;2022-08-19T01:14:39;7.93;;;4.60;;
60225;SDS011;46090;48.436;11.410;2022-08-19T01:17:08;7.22;;;4.18;;
60225;SDS011;46090;48.436;11.410;2022-08-19T01:19:39;7.32;;;4.00;;
60225;SDS011;46090;48.436;11.410;2022-08-19T01:24:55;7.65;;;4.00;;
60225;SDS011;46090;48.436;11.410;2022-08-19T01:27:22;8.02;;;4.05;;
60225;SDS011;46090;48.436;11.410;2022-08-19T01:29:51;7.53;;;3.70;;
60225;SDS011;46090;48.436;11.410;2022-08-19T01:32:18;7.70;;;3.90;;
60225;SDS011;46090;48.436;11.410;2022-08-19T01:35:00;6.43;;;3.58;;
60225;SDS011;46090;48.436;11.410;2022-08-19T01:37:28;7.28;;;3.58;;
60225;SDS011;46090;48.436;11.410;2022-08-19T01:39:57;8.63;;;3.58;;
60225;SDS011;46090;48.436;11.410;2022-08-19T01:42:24;7.53;;;3.25;;
60225;SDS011;46090;48.436;11.410;2022-08-19T01:44:56;7.07;;;3.53;;
60225;SDS011;46090;48.436;11.410;2022-08-19T01:47:24;6.05;;;3.67;;
60225;SDS011;46090;48.436;11.410;2022-08-19T01:49:50;8.88;;;3.40;;
60225;SDS011;46090;48.436;11.410;2022-08-19T01:52:17;6.88;;;3.30;;
60225;SDS011;46090;48.436;11.410;2022-08-19T01:54:44;6.25;;;3.20;;
60225;SDS011;46090;48.436;11.410;2022-08-19T01:57:12;7.63;;;2.95;;
60225;SDS011;46090;48.436;11.410;2022-08-19T01:59:40;7.05;;;2.83;;
60225;SDS011;46090;48.436;11.410;2022-08-19T02:02:09;9.25;;;2.95;;
60225;SDS011;46090;48.436;11.410;2022-08-19T02:04:38;7.65;;;3.00;;
60225;SDS011;46090;48.436;11.410;2022-08-19T02:07:10;5.15;;;2.60;;
60225;SDS011;46090;48.436;11.410;2022-08-19T02:09:38;8.05;;;3.25;;
60225;SDS011;46090;48.436;11.410;2022-08-19T02:12:06;5.40;;;2.90;;
60225;SDS011;46090;48.436;11.410;2022-08-19T02:14:35;7.00;;;2.85;;
60225;SDS011;46090;48.436;11.410;2022-08-19T02:17:03;6.13;;;2.85;;
60225;SDS011;46090;48.436;11.410;2022-08-19T02:19:30;7.65;;;3.00;;
60225;SDS011;46090;48.436;11.410;2022-08-19T02:22:00;6.63;;;2.80;;
60225;SDS011;46090;48.436;11.410;2022-08-19T02:24:30;6.60;;;2.72;;
60225;SDS011;46090;48.436;11.410;2022-08-19T02:26:58;4.30;;;2.22;;
60225;SDS011;46090;48.436;11.410;2022-08-19T02:29:27;4.90;;;2.38;;
60225;SDS011;46090;48.436;11.410;2022-08-19T02:31:56;7.78;;;3.05;;
60225;SDS011;46090;48.436;11.410;2022-08-19T02:34:24;9.40;;;2.45;;
60225;SDS011;46090;48.436;11.410;2022-08-19T02:36:52;6.25;;;3.15;;
60225;SDS011;46090;48.436;11.410;2022-08-19T02:39:20;6.30;;;2.78;;
60225;SDS011;46090;48.436;11.410;2022-08-19T02:41:47;4.53;;;2.33;;
60225;SDS011;46090;48.436;11.410;2022-08-19T02:44:17;6.22;;;2.47;;
60225;SDS011;46090;48.436;11.410;2022-08-19T02:46:56;5.03;;;2.78;;
60225;SDS011;46090;48.436;11.410;2022-08-19T02:49:23;4.93;;;2.42;;
60225;SDS011;46090;48.436;11.410;2022-08-19T02:51:50;5.97;;;2.47;;
60225;SDS011;46090;48.436;11.410;2022-08-19T02:54:17;6.35;;;2.20;;
60225;SDS011;46090;48.436;11.410;2022-08-19T02:56:44;6.88;;;2.20;;
60225;SDS011;46090;48.436;11.410;2022-08-19T02:59:11;5.10;;;2.80;;
60225;SDS011;46090;48.436;11.410;2022-08-19T03:01:40;5.18;;;2.42;;
60225;SDS011;46090;48.436;11.410;2022-08-19T03:04:11;6.00;;;2.38;;
60225;SDS011;46090;48.436;11.410;2022-08-19T03:06:43;8.23;;;2.97;;
60225;SDS011;46090;48.436;11.410;2022-08-19T03:09:11;5.88;;;2.60;;
60225;SDS011;46090;48.436;11.410;2022-08-19T03:11:38;7.35;;;3.10;;
60225;SDS011;46090;48.436;11.410;2022-08-19T03:14:06;7.32;;;3.22;;
60225;SDS011;46090;48.436;11.410;2022-08-19T03:16:35;7.60;;;3.25;;
60225;SDS011;46090;48.436;11.410;2022-08-19T03:19:08;7.25;;;3.75;;
60225;SDS011;46090;48.436;11.410;2022-08-19T03:21:36;8.20;;;3.63;;
60225;SDS011;46090;48.436;11.410;2022-08-19T03:24:03;7.53;;;4.07;;
60225;SDS011;46090;48.436;11.410;2022-08-19T03:26:33;7.40;;;3.63;;
60225;SDS011;46090;48.436;11.410;2022-08-19T03:29:02;8.23;;;3.85;;
60225;SDS011;46090;48.436;11.410;2022-08-19T03:31:31;7.47;;;4.35;;
60225;SDS011;46090;48.436;11.410;2022-08-19T03:34:17;8.70;;;4.22;;
60225;SDS011;46090;48.436;11.410;2022-08-19T03:36:46;7.93;;;4.53;;
60225;SDS011;46090;48.436;11.410;2022-08-19T03:39:13;9.35;;;4.70;;
60225;SDS011;46090;48.436;11.410;2022-08-19T03:41:42;7.57;;;4.38;;
60225;SDS011;46090;48.436;11.410;2022-08-19T03:44:16;7.13;;;3.67;;
60225;SDS011;46090;48.436;11.410;2022-08-19T03:46:47;8.35;;;4.63;;
60225;SDS011;46090;48.436;11.410;2022-08-19T03:49:26;10.88;;;4.85;;
60225;SDS011;46090;48.436;11.410;2022-08-19T03:51:56;9.48;;;4.90;;
60225;SDS011;46090;48.436;11.410;2022-08-19T03:54:24;10.73;;;5.53;;
60225;SDS011;46090;48.436;11.410;2022-08-19T03:56:53;9.07;;;5.18;;
60225;SDS011;46090;48.436;11.410;2022-08-19T03:59:22;9.40;;;5.82;;
60225;SDS011;46090;48.436;11.410;2022-08-19T04:01:53;10.68;;;5.93;;
60225;SDS011;46090;48.436;11.410;2022-08-19T04:04:22;12.02;;;6.45;;
60225;SDS011;46090;48.436;11.410;2022-08-19T04:06:56;10.80;;;6.25;;
60225;SDS011;46090;48.436;11.410;2022-08-19T04:09:24;10.50;;;6.45;;
60225;SDS011;46090;48.436;11.410;2022-08-19T04:11:53;11.48;;;5.97;;
60225;SDS011;46090;48.436;11.410;2022-08-19T04:14:23;10.73;;;6.78;;
60225;SDS011;46090;48.436;11.410;2022-08-19T04:16:53;13.90;;;7.03;;
60225;SDS011;46090;48.436;11.410;2022-08-19T04:19:21;12.07;;;7.20;;
60225;SDS011;46090;48.436;11.410;2022-08-19T04:21:51;10.80;;;6.57;;
60225;SDS011;46090;48.436;11.410;2022-08-19T04:24:21;13.45;;;7.20;;
60225;SDS011;46090;48.436;11.410;2022-08-19T04:26:49;12.50;;;7.68;;
60225;SDS011;46090;48.436;11.410;2022-08-19T04:29:18;14.82;;;8.10;;
60225;SDS011;46090;48.436;11.410;2022-08-19T04:31:49;16.33;;;8.70;;
60225;SDS011;46090;48.436;11.410;2022-08-19T04:34:17;15.05;;;8.68;;
60225;SDS011;46090;48.436;11.410;2022-08-19T04:36:50;14.18;;;8.75;;
60225;SDS011;46090;48.436;11.410;2022-08-19T04:39:27;14.52;;;8.27;;
60225;SDS011;46090;48.436;11.410;2022-08-19T04:42:14;13.63;;;8.35;;
60225;SDS011;46090;48.436;11.410;2022-08-19T04:45:02;14.45;;;8.73;;
60225;SDS011;46090;48.436;11.410;2022-08-19T04:47:36;14.93;;;9.07;;
60225;SDS011;46090;48.436;11.410;2022-08-19T04:50:24;14.75;;;8.48;;
60225;SDS011;46090;48.436;11.410;2022-08-19T04:52:52;15.13;;;8.70;;
60225;SDS011;46090;48.436;11.410;2022-08-19T04:55:20;13.88;;;8.73;;
60225;SDS011;46090;48.436;11.410;2022-08-19T04:57:47;13.30;;;8.52;;
60225;SDS011;46090;48.436;11.410;2022-08-19T05:00:17;14.20;;;9.35;;
60225;SDS011;46090;48.436;11.410;2022-08-19T05:02:45;14.32;;;8.98;;
60225;SDS011;46090;48.436;11.410;2022-08-19T05:05:14;14.65;;;9.50;;
60225;SDS011;46090;48.436;11.410;2022-08-19T05:07:41;16.60;;;10.65;;
60225;SDS011;46090;48.436;11.410;2022-08-19T05:10:08;18.48;;;9.93;;
60225;SDS011;46090;48.436;11.410;2022-08-19T05:12:36;15.65;;;9.40;;
60225;SDS011;46090;48.436;11.410;2022-08-19T05:15:04;16.65;;;9.75;;
60225;SDS011;46090;48.436;11.410;2022-08-19T05:17:32;16.52;;;10.00;;
60225;SDS011;46090;48.436;11.410;2022-08-19T05:20:06;16.52;;;10.57;;
60225;SDS011;46090;48.436;11.410;2022-08-19T05:22:52;17.20;;;9.32;;
60225;SDS011;46090;48.436;11.410;2022-08-19T05:25:20;17.05;;;9.75;;
60225;SDS011;46090;48.436;11.410;2022-08-19T05:27:48;17.20;;;10.80;;
60225;SDS011;46090;48.436;11.410;2022-08-19T05:30:16;17.75;;;10.23;;
60225;SDS011;46090;48.436;11.410;2022-08-19T05:32:42;18.50;;;10.60;;
60225;SDS011;46090;48.436;11.410;2022-08-19T05:35:09;17.80;;;11.25;;
60225;SDS011;46090;48.436;11.410;2022-08-19T05:37:38;16.55;;;10.32;;
60225;SDS011;46090;48.436;11.410;2022-08-19T05:40:07;18.45;;;10.80;;
60225;SDS011;46090;48.436;11.410;2022-08-19T05:42:36;18.70;;;11.15;;
60225;SDS011;46090;48.436;11.410;2022-08-19T05:45:04;18.35;;;10.35;;
60225;SDS011;46090;48.436;11.410;2022-08-19T05:47:33;18.85;;;11.15;;
60225;SDS011;46090;48.436;11.410;2022-08-19T05:50:07;16.70;;;10.75;;
60225;SDS011;46090;48.436;11.410;2022-08-19T05:52:36;17.70;;;10.68;;
60225;SDS011;46090;48.436;11.410;2022-08-19T05:55:10;16.02;;;10.35;;
60225;SDS011;46090;48.436;11.410;2022-08-19T05:57:38;19.02;;;10.75;;
60225;SDS011;46090;48.436;11.410;2022-08-19T06:00:06;20.55;;;11.32;;
60225;SDS011;46090;48.436;11.410;2022-08-19T06:02:41;18.63;;;11.07;;
60225;SDS011;46090;48.436;11.410;2022-08-19T06:05:09;17.35;;;10.23;;
60225;SDS011;46090;48.436;11.410;2022-08-19T06:07:38;20.25;;;12.50;;
60225;SDS011;46090;48.436;11.410;2022-08-19T06:10:08;19.65;;;11.73;;
60225;SDS011;46090;48.436;11.410;2022-08-19T06:12:38;21.02;;;12.82;;
60225;SDS011;46090;48.436;11.410;2022-08-19T06:15:08;22.92;;;13.45;;
60225;SDS011;46090;48.436;11.410;2022-08-19T06:17:38;22.33;;;13.57;;
60225;SDS011;46090;48.436;11.410;2022-08-19T06:20:08;23.63;;;14.02;;
60225;SDS011;46090;48.436;11.410;2022-08-19T06:22:43;20.95;;;13.63;;
60225;SDS011;46090;48.436;11.410;2022-08-19T06:25:12;20.58;;;13.05;;
60225;SDS011;46090;48.436;11.410;2022-08-19T06:27:41;21.15;;;13.15;;
60225;SDS011;46090;48.436;11.410;2022-08-19T06:30:28;22.48;;;13.57;;
60225;SDS011;46090;48.436;11.410;2022-08-19T06:32:56;22.38;;;13.13;;
60225;SDS011;46090;48.436;11.410;2022-08-19T06:35:23;23.27;;;13.27;;
60225;SDS011;46090;48.436;11.410;2022-08-19T06:37:51;23.92;;;13.93;;
60225;SDS011;46090;48.436;11.410;2022-08-19T06:40:19;20.85;;;13.02;;
60225;SDS011;46090;48.436;11.410;2022-08-19T06:42:45;22.02;;;13.40;;
60225;SDS011;46090;48.436;11.410;2022-08-19T06:45:22;22.80;;;13.73;;
60225;SDS011;46090;48.436;11.410;2022-08-19T06:47:52;21.67;;;13.13;;
60225;SDS011;46090;48.436;11.410;2022-08-19T06:50:21;21.35;;;13.13;;
60225;SDS011;46090;48.436;11.410;2022-08-19T06:52:51;22.88;;;13.90;;
60225;SDS011;46090;48.436;11.410;2022-08-19T06:55:18;21.17;;;12.70;;
60225;SDS011;46090;48.436;11.410;2022-08-19T06:57:47;22.58;;;14.10;;
60225;SDS011;46090;48.436;11.410;2022-08-19T07:00:14;25.08;;;14.32;;
60225;SDS011;46090;48.436;11.410;2022-08-19T07:02:44;23.30;;;14.18;;
60225;SDS011;46090;48.436;11.410;2022-08-19T07:05:21;22.02;;;13.77;;
60225;SDS011;46090;48.436;11.410;2022-08-19T07:07:49;24.73;;;14.43;;
60225;SDS011;46090;48.436;11.410;2022-08-19T07:10:16;26.00;;;14.38;;
60225;SDS011;46090;48.436;11.410;2022-08-19T07:12:43;22.48;;;14.43;;
60225;SDS011;46090;48.436;11.410;2022-08-19T07:15:11;20.48;;;12.98;;
60225;SDS011;46090;48.436;11.410;2022-08-19T07:17:39;23.02;;;14.00;;
60225;SDS011;46090;48.436;11.410;2022-08-19T07:20:09;25.75;;;15.00;;
60225;SDS011;46090;48.436;11.410;2022-08-19T07:22:38;23.48;;;14.23;;
60225;SDS011;46090;48.436;11.410;2022-08-19T07:25:06;26.15;;;14.38;;
60225;SDS011;46090;48.436;11.410;2022-08-19T07:27:35;24.25;;;14.88;;
60225;SDS011;46090;48.436;11.410;2022-08-19T07:30:03;24.50;;;15.20;;
60225;SDS011;46090;48.436;11.410;2022-08-19T07:32:31;28.48;;;15.55;;
60225;SDS011;46090;48.436;11.410;2022-08-19T07:34:58;25.58;;;15.25;;
60225;SDS011;46090;48.436;11.410;2022-08-19T07:37:27;25.65;;;15.60;;
60225;SDS011;46090;48.436;11.410;2022-08-19T07:40:00;24.27;;;15.23;;
60225;SDS011;46090;48.436;11.410;2022-08-19T07:42:30;26.27;;;15.48;;
60225;SDS011;46090;48.436;11.410;2022-08-19T07:44:57;26.90;;;15.35;;
60225;SDS011;46090;48.436;11.410;2022-08-19T07:47:25;25.23;;;15.35;;
60225;SDS011;46090;48.436;11.410;2022-08-19T07:50:14;24.67;;;14.20;;
60225;SDS011;46090;48.436;11.410;2022-08-19T07:52:43;29.17;;;15.40;;
60225;SDS011;46090;48.436;11.410;2022-08-19T07:55:15;26.42;;;14.90;;
60225;SDS011;46090;48.436;11.410;2022-08-19T07:58:04;22.90;;;13.70;;
60225;SDS011;46090;48.436;11.410;2022-08-19T08:00:32;25.42;;;15.23;;
60225;SDS011;46090;48.436;11.410;2022-08-19T08:03:00;24.73;;;15.70;;
60225;SDS011;46090;48.436;11.410;2022-08-19T08:05:28;26.98;;;15.80;;
60225;SDS011;46090;48.436;11.410;2022-08-19T08:08:14;26.08;;;16.40;;
60225;SDS011;46090;48.436;11.410;2022-08-19T08:11:15;25.48;;;15.52;;
60225;SDS011;46090;48.436;11.410;2022-08-19T08:13:46;25.42;;;15.05;;
60225;SDS011;46090;48.436;11.410;2022-08-19T08:19:14;28.67;;;16.30;;
60225;SDS011;46090;48.436;11.410;2022-08-19T08:21:54;25.45;;;15.30;;
60225;SDS011;46090;48.436;11.410;2022-08-19T08:24:24;25.13;;;16.50;;
60225;SDS011;46090;48.436;11.410;2022-08-19T08:26:58;25.55;;;15.68;;
60225;SDS011;46090;48.436;11.410;2022-08-19T08:29:29;24.02;;;15.15;;
60225;SDS011;46090;48.436;11.410;2022-08-19T08:32:02;29.92;;;17.35;;
60225;SDS011;46090;48.436;11.410;2022-08-19T08:34:42;29.48;;;16.58;;
60225;SDS011;46090;48.436;11.410;2022-08-19T08:37:09;28.13;;;16.77;;
60225;SDS011;46090;48.436;11.410;2022-08-19T08:39:35;28.63;;;16.38;;
60225;SDS011;46090;48.436;11.410;2022-08-19T08:44:48;30.98;;;18.17;;
60225;SDS011;46090;48.436;11.410;2022-08-19T08:47:18;32.22;;;17.83;;
60225;SDS011;46090;48.436;11.410;2022-08-19T08:49:49;28.52;;;17.65;;
60225;SDS011;46090;48.436;11.410;2022-08-19T08:52:22;28.20;;;18.33;;
60225;SDS011;46090;48.436;11.410;2022-08-19T08:54:59;29.90;;;19.10;;
60225;SDS011;46090;48.436;11.410;2022-08-19T08:57:32;32.63;;;19.77;;
60225;SDS011;46090;48.436;11.410;2022-08-19T09:00:08;35.83;;;20.65;;
60225;SDS011;46090;48.436;11.410;2022-08-19T09:02:43;31.85;;;19.70;;
60225;SDS011;46090;48.436;11.410;2022-08-19T09:05:18;31.95;;;19.40;;
60225;SDS011;46090;48.436;11.410;2022-08-19T09:08:00;34.60;;;20.23;;
60225;SDS011;46090;48.436;11.410;2022-08-19T09:10:39;30.55;;;18.90;;
60225;SDS011;46090;48.436;11.410;2022-08-19T09:16:23;30.67;;;18.92;;
60225;SDS011;46090;48.436;11.410;2022-08-19T09:18:55;29.00;;;17.83;;
60225;SDS011;46090;48.436;11.410;2022-08-19T09:21:33;28.67;;;18.83;;
60225;SDS011;46090;48.436;11.410;2022-08-19T09:24:06;28.17;;;17.95;;
60225;SDS011;46090;48.436;11.410;2022-08-19T09:26:34;30.00;;;18.38;;
60225;SDS011;46090;48.436;11.410;2022-08-19T09:29:18;30.05;;;18.10;;
60225;SDS011;46090;48.436;11.410;2022-08-19T09:31:48;28.80;;;17.73;;
60225;SDS011;46090;48.436;11.410;2022-08-19T09:34:18;29.10;;;17.95;;
60225;SDS011;46090;48.436;11.410;2022-08-19T09:36:50;33.10;;;19.25;;
60225;SDS011;46090;48.436;11.410;2022-08-19T09:39:20;29.65;;;19.02;;
60225;SDS011;46090;48.436;11.410;2022-08-19T09:41:49;29.77;;;18.58;;
60225;SDS011;46090;48.436;11.410;2022-08-19T09:44:17;31.48;;;19.20;;
60225;SDS011;46090;48.436;11.410;2022-08-19T09:46:45;29.52;;;17.27;;
60225;SDS011;46090;48.436;11.410;2022-08-19T09:49:16;31.02;;;18.73;;
60225;SDS011;46090;48.436;11.410;2022-08-19T09:51:44;29.20;;;17.95;;
60225;SDS011;46090;48.436;11.410;2022-08-19T09:54:20;32.95;;;18.45;;
60225;SDS011;46090;48.436;11.410;2022-08-19T09:56:51;29.95;;;17.48;;
60225;SDS011;46090;48.436;11.410;2022-08-19T09:59:22;26.75;;;17.17;;
60225;SDS011;46090;48.436;11.410;2022-08-19T10:01:50;30.23;;;17.15;;
60225;SDS011;46090;48.436;11.410;2022-08-19T10:04:22;28.17;;;17.52;;
60225;SDS011;46090;48.436;11.410;2022-08-19T10:06:51;30.27;;;18.67;;
60225;SDS011;46090;48.436;11.410;2022-08-19T10:09:25;31.50;;;17.95;;
60225;SDS011;46090;48.436;11.410;2022-08-19T10:12:00;26.70;;;16.83;;
60225;SDS011;46090;48.436;11.410;2022-08-19T10:14:32;30.48;;;17.77;;
60225;SDS011;46090;48.436;11.410;2022-08-19T10:17:01;33.83;;;20.05;;
60225;SDS011;46090;48.436;11.410;2022-08-19T10:19:45;29.35;;;17.35;;
60225;SDS011;46090;48.436;11.410;2022-08-19T10:22:24;31.42;;;18.80;;
60225;SDS011;46090;48.436;11.410;2022-08-19T10:24:53;31.00;;;17.45;;
60225;SDS011;46090;48.436;11.410;2022-08-19T10:27:21;29.67;;;18.55;;
60225;SDS011;46090;48.436;11.410;2022-08-19T10:29:51;31.55;;;17.65;;
60225;SDS011;46090;48.436;11.410;2022-08-19T10:32:22;29.55;;;17.35;;
60225;SDS011;46090;48.436;11.410;2022-08-19T10:35:02;30.15;;;17.77;;
60225;SDS011;46090;48.436;11.410;2022-08-19T10:37:36;29.08;;;18.38;;
60225;SDS011;46090;48.436;11.410;2022-08-19T10:40:24;30.23;;;18.10;;
60225;SDS011;46090;48.436;11.410;2022-08-19T10:42:55;30.48;;;17.25;;
60225;SDS011;46090;48.436;11.410;2022-08-19T10:45:23;31.77;;;17.83;;
60225;SDS011;46090;48.436;11.410;2022-08-19T10:47:55;32.17;;;18.17;;
60225;SDS011;46090;48.436;11.410;2022-08-19T10:50:23;29.17;;;17.67;;
60225;SDS011;46090;48.436;11.410;2022-08-19T10:53:08;26.63;;;15.35;;
60225;SDS011;46090;48.436;11.410;2022-08-19T10:55:37;26.70;;;15.68;;
60225;SDS011;46090;48.436;11.410;2022-08-19T10:58:22;26.48;;;15.18;;
60225;SDS011;46090;48.436;11.410;2022-08-19T11:00:55;25.95;;;13.95;;
60225;SDS011;46090;48.436;11.410;2022-08-19T11:03:26;22.17;;;13.60;;
60225;SDS011;46090;48.436;11.410;2022-08-19T11:06:02;19.10;;;12.10;;
60225;SDS011;46090;48.436;11.410;2022-08-19T11:08:33;20.13;;;11.55;;
60225;SDS011;46090;48.436;11.410;2022-08-19T11:11:02;14.95;;;9.63;;
60225;SDS011;46090;48.436;11.410;2022-08-19T11:13:31;13.60;;;9.40;;
60225;SDS011;46090;48.436;11.410;2022-08-19T11:16:05;12.25;;;7.80;;
60225;SDS011;46090;48.436;11.410;2022-08-19T11:18:35;11.73;;;7.18;;
60225;SDS011;46090;48.436;11.410;2022-08-19T11:21:08;10.43;;;6.30;;
60225;SDS011;46090;48.436;11.410;2022-08-19T11:23:35;9.35;;;5.55;;
60225;SDS011;46090;48.436;11.410;2022-08-19T11:26:03;8.60;;;5.10;;
60225;SDS011;46090;48.436;11.410;2022-08-19T11:28:31;6.57;;;3.38;;
60225;SDS011;46090;48.436;11.410;2022-08-19T11:30:58;5.97;;;3.13;;
60225;SDS011;46090;48.436;11.410;2022-08-19T11:33:25;5.95;;;3.22;;
60225;SDS011;46090;48.436;11.410;2022-08-19T11:35:52;5.80;;;2.17;;
60225;SDS011;46090;48.436;11.410;2022-08-19T11:38:22;4.68;;;2.20;;
60225;SDS011;46090;48.436;11.410;2022-08-19T11:40:59;4.40;;;1.77;;
60225;SDS011;46090;48.436;11.410;2022-08-19T11:43:27;4.85;;;1.52;;
60225;SDS011;46090;48.436;11.410;2022-08-19T11:46:05;3.80;;;1.50;;
60225;SDS011;46090;48.436;11.410;2022-08-19T11:48:34;4.70;;;2.00;;
60225;SDS011;46090;48.436;11.410;2022-08-19T11:51:04;3.92;;;1.50;;
60225;SDS011;46090;48.436;11.410;2022-08-19T11:53:36;3.53;;;1.40;;
60225;SDS011;46090;48.436;11.410;2022-08-19T11:56:04;2.58;;;0.90;;
60225;SDS011;46090;48.436;11.410;2022-08-19T11:58:32;3.22;;;0.95;;
60225;SDS011;46090;48.436;11.410;2022-08-19T12:01:01;3.17;;;0.90;;
60225;SDS011;46090;48.436;11.410;2022-08-19T12:03:32;4.80;;;1.40;;
60225;SDS011;46090;48.436;11.410;2022-08-19T12:06:04;3.72;;;1.50;;
60225;SDS011;46090;48.436;11.410;2022-08-19T12:08:32;3.30;;;1.20;;
60225;SDS011;46090;48.436;11.410;2022-08-19T12:10:59;4.07;;;1.90;;
60225;SDS011;46090;48.436;11.410;2022-08-19T12:13:29;2.92;;;1.20;;
60225;SDS011;46090;48.436;11.410;2022-08-19T12:15:59;3.38;;;1.40;;
60225;SDS011;46090;48.436;11.410;2022-08-19T12:18:27;4.55;;;1.60;;
60225;SDS011;46090;48.436;11.410;2022-08-19T12:20:56;5.07;;;1.45;;
60225;SDS011;46090;48.436;11.410;2022-08-19T12:23:25;4.93;;;2.03;;
60225;SDS011;46090;48.436;11.410;2022-08-19T12:25:53;5.20;;;1.88;;
60225;SDS011;46090;48.436;11.410;2022-08-19T12:28:22;4.80;;;2.15;;
60225;SDS011;46090;48.436;11.410;2022-08-19T12:30:50;5.78;;;3.03;;
60225;SDS011;46090;48.436;11.410;2022-08-19T12:33:18;6.40;;;3.33;;
60225;SDS011;46090;48.436;11.410;2022-08-19T12:35:51;6.55;;;3.83;;
60225;SDS011;46090;48.436;11.410;2022-08-19T12:38:21;7.38;;;3.90;;
60225;SDS011;46090;48.436;11.410;2022-08-19T12:40:51;7.22;;;3.88;;
60225;SDS011;46090;48.436;11.410;2022-08-19T12:43:22;6.78;;;3.78;;
60225;SDS011;46090;48.436;11.410;2022-08-19T12:45:49;6.00;;;3.38;;
60225;SDS011;46090;48.436;11.410;2022-08-19T12:48:20;5.88;;;3.05;;
60225;SDS011;46090;48.436;11.410;2022-08-19T12:51:06;7.20;;;2.85;;
60225;SDS011;46090;48.436;11.410;2022-08-19T12:53:33;4.43;;;1.85;;
60225;SDS011;46090;48.436;11.410;2022-08-19T12:56:05;4.55;;;1.55;;
60225;SDS011;46090;48.436;11.410;2022-08-19T12:58:40;4.60;;;1.73;;
60225;SDS011;46090;48.436;11.410;2022-08-19T13:01:18;4.25;;;1.70;;
60225;SDS011;46090;48.436;11.410;2022-08-19T13:03:50;4.30;;;1.70;;
60225;SDS011;46090;48.436;11.410;2022-08-19T13:06:20;3.67;;;1.38;;
60225;SDS011;46090;48.436;11.410;2022-08-19T13:08:49;3.30;;;1.42;;
60225;SDS011;46090;48.436;11.410;2022-08-19T13:11:18;3.95;;;1.73;;
60225;SDS011;46090;48.436;11.410;2022-08-19T13:13:46;4.47;;;1.75;;
60225;SDS011;46090;48.436;11.410;2022-08-19T13:16:14;5.00;;;2.55;;
60225;SDS011;46090;48.436;11.410;2022-08-19T13:18:42;5.25;;;2.30;;
60225;SDS011;46090;48.436;11.410;2022-08-19T13:21:10;6.07;;;2.53;;
60225;SDS011;46090;48.436;11.410;2022-08-19T13:23:39;5.45;;;2.47;;
60225;SDS011;46090;48.436;11.410;2022-08-19T13:26:07;6.97;;;3.85;;
60225;SDS011;46090;48.436;11.410;2022-08-19T13:28:35;8.88;;;4.65;;
60225;SDS011;46090;48.436;11.410;2022-08-19T13:34:08;8.13;;;4.80;;
60225;SDS011;46090;48.436;11.410;2022-08-19T13:36:35;6.82;;;3.95;;
60225;SDS011;46090;48.436;11.410;2022-08-19T13:39:05;5.88;;;3.40;;
60225;SDS011;46090;48.436;11.410;2022-08-19T13:41:33;6.18;;;3.17;;
60225;SDS011;46090;48.436;11.410;2022-08-19T13:44:01;5.93;;;2.75;;
60225;SDS011;46090;48.436;11.410;2022-08-19T13:46:29;5.53;;;2.90;;
60225;SDS011;46090;48.436;11.410;2022-08-19T13:48:57;5.55;;;2.83;;
60225;SDS011;46090;48.436;11.410;2022-08-19T13:51:24;6.13;;;2.40;;
60225;SDS011;46090;48.436;11.410;2022-08-19T13:53:51;6.55;;;2.70;;
60225;SDS011;46090;48.436;11.410;2022-08-19T13:56:21;6.30;;;3.30;;
60225;SDS011;46090;48.436;11.410;2022-08-19T13:58:52;6.75;;;3.58;;
60225;SDS011;46090;48.436;11.410;2022-08-19T14:01:22;7.68;;;4.00;;
60225;SDS011;46090;48.436;11.410;2022-08-19T14:03:55;7.30;;;4.25;;
60225;SDS011;46090;48.436;11.410;2022-08-19T14:06:23;8.68;;;4.93;;
60225;SDS011;46090;48.436;11.410;2022-08-19T14:08:55;8.52;;;4.90;;
60225;SDS011;46090;48.436;11.410;2022-08-19T14:11:22;10.32;;;4.85;;
60225;SDS011;46090;48.436;11.410;2022-08-19T14:13:50;9.07;;;5.05;;
60225;SDS011;46090;48.436;11.410;2022-08-19T14:16:18;11.63;;;4.97;;
60225;SDS011;46090;48.436;11.410;2022-08-19T14:18:45;10.38;;;5.93;;
60225;SDS011;46090;48.436;11.410;2022-08-19T14:21:15;10.32;;;5.75;;
60225;SDS011;46090;48.436;11.410;2022-08-19T14:23:45;8.20;;;5.07;;
60225;SDS011;46090;48.436;11.410;2022-08-19T14:26:15;10.32;;;7.10;;
60225;SDS011;46090;48.436;11.410;2022-08-19T14:28:44;11.20;;;7.35;;
60225;SDS011;46090;48.436;11.410;2022-08-19T14:31:13;11.60;;;6.65;;
60225;SDS011;46090;48.436;11.410;2022-08-19T14:33:46;13.07;;;7.93;;
60225;SDS011;46090;48.436;11.410;2022-08-19T14:36:14;12.57;;;7.88;;
60225;SDS011;46090;48.436;11.410;2022-08-19T14:38:48;13.50;;;8.15;;
60225;SDS011;46090;48.436;11.410;2022-08-19T14:41:17;15.05;;;9.35;;
60225;SDS011;46090;48.436;11.410;2022-08-19T14:43:50;14.15;;;8.52;;
60225;SDS011;46090;48.436;11.410;2022-08-19T14:46:21;15.30;;;8.18;;
60225;SDS011;46090;48.436;11.410;2022-08-19T14:48:52;15.07;;;9.27;;
60225;SDS011;46090;48.436;11.410;2022-08-19T14:51:19;15.40;;;9.20;;
60225;SDS011;46090;48.436;11.410;2022-08-19T14:53:48;13.07;;;8.52;;
60225;SDS011;46090;48.436;11.410;2022-08-19T14:56:18;15.05;;;9.52;;